createdAt,value
2018-12-24T10:32:43.695Z,10.30
2018-12-24T10:35:11.741Z,10.20
2018-12-24T10:37:39.913Z,10.30
2018-12-24T10:40:11.677Z,10.20
2018-12-24T10:42:39.789Z,10.20
2018-12-24T10:45:16.241Z,10.30
2018-12-24T10:47:37.809Z,10.20
2018-12-24T10:50:06.083Z,10.30
2018-12-24T10:52:34.177Z,10.30
2018-12-24T10:55:02.256Z,10.30
2018-12-24T10:57:30.221Z,10.30
2018-12-24T10:59:58.299Z,10.30
2018-12-24T11:02:26.200Z,10.30
2018-12-24T11:04:54.390Z,10.30
2018-12-24T11:07:22.806Z,10.30
2018-12-24T11:09:52.638Z,10.30
2018-12-24T11:12:21.395Z,10.40
2018-12-24T11:14:50.407Z,10.30
2018-12-24T11:17:19.195Z,10.40
2018-12-24T11:19:47.989Z,10.40
2018-12-24T11:22:22.823Z,10.40
2018-12-24T11:24:51.495Z,10.40
2018-12-24T11:30:20.001Z,10.40
2018-12-24T11:32:48.697Z,10.30
2018-12-24T11:35:16.951Z,10.40
2018-12-24T11:37:45.438Z,10.30
2018-12-24T11:40:14.082Z,10.30
2018-12-24T11:42:42.151Z,10.30
2018-12-24T11:45:10.494Z,10.30
2018-12-24T11:47:38.916Z,10.30
2018-12-24T11:50:07.226Z,10.30
2018-12-24T11:52:35.619Z,10.30
2018-12-24T11:55:04.290Z,10.30
2018-12-24T11:57:32.734Z,10.40
2018-12-24T12:00:01.132Z,10.40
2018-12-24T12:02:29.685Z,10.40
2018-12-24T12:04:58.015Z,10.30
2018-12-24T12:07:25.867Z,10.30
2018-12-24T12:09:53.767Z,10.10
2018-12-24T12:12:21.734Z,10.20
2018-12-24T12:14:49.594Z,10.10
2018-12-24T12:17:17.540Z,10.20
2018-12-24T12:19:45.493Z,10.20
2018-12-24T12:22:13.392Z,10.10
2018-12-24T12:24:41.858Z,10.10
2018-12-24T12:27:10.758Z,10.10
2018-12-24T12:29:39.228Z,10.10
2018-12-24T12:32:07.816Z,10.10
2018-12-24T12:34:36.586Z,10.10
2018-12-24T12:37:05.265Z,10.10
2018-12-24T12:39:33.975Z,9.90
2018-12-24T12:42:02.751Z,9.70
2018-12-24T12:44:31.232Z,9.80
2018-12-24T12:46:59.572Z,9.80
2018-12-24T12:49:28.003Z,9.80
2018-12-24T12:51:56.476Z,9.80
2018-12-24T12:54:25.214Z,9.80
2018-12-24T12:56:53.716Z,9.90
2018-12-24T12:59:22.530Z,9.90
2018-12-24T13:01:51.318Z,9.80
2018-12-24T13:04:19.812Z,9.70
2018-12-24T13:06:48.358Z,9.70
2018-12-24T13:09:17.270Z,9.70
2018-12-24T13:11:46.038Z,9.50
2018-12-24T13:14:14.557Z,9.70
2018-12-24T13:16:43.131Z,9.70
2018-12-24T13:19:11.683Z,9.80
2018-12-24T13:21:39.580Z,9.90
2018-12-24T13:24:08.045Z,9.90
2018-12-24T13:26:36.333Z,9.70
2018-12-24T13:29:04.722Z,9.90
2018-12-24T13:31:33.401Z,10.00
2018-12-24T13:34:02.082Z,10.00
2018-12-24T13:36:30.483Z,10.10
2018-12-24T13:38:59.043Z,10.00
2018-12-24T13:41:27.423Z,10.10
2018-12-24T13:43:55.595Z,10.20
2018-12-24T13:46:24.077Z,10.20
2018-12-24T13:48:52.455Z,10.20
2018-12-24T13:51:20.931Z,10.20
2018-12-24T13:53:49.719Z,10.20
2018-12-24T13:56:18.913Z,10.20
2018-12-24T13:58:47.809Z,10.10
2018-12-24T14:01:16.873Z,10.10
2018-12-24T14:03:45.780Z,10.00
2018-12-24T14:06:14.193Z,10.00
2018-12-24T14:08:42.644Z,10.00
2018-12-24T14:11:11.207Z,10.10
2018-12-24T14:13:39.903Z,10.10
2018-12-24T14:16:16.532Z,10.00
2018-12-24T14:18:40.667Z,10.10
2018-12-24T14:21:09.765Z,10.10
2018-12-24T14:23:38.395Z,10.10
2018-12-24T14:26:06.444Z,10.10
2018-12-24T14:28:34.326Z,10.20
2018-12-24T14:31:02.232Z,10.10
2018-12-24T14:33:30.205Z,10.00
2018-12-24T14:35:58.726Z,9.80
2018-12-24T14:38:29.018Z,9.80
2018-12-24T14:40:57.702Z,9.60
2018-12-24T14:43:26.593Z,9.70
2018-12-24T14:45:55.743Z,9.30
2018-12-24T14:48:24.682Z,9.10
2018-12-24T14:50:53.975Z,8.90
2018-12-24T14:53:22.560Z,9.00
2018-12-24T14:55:51.042Z,9.00
2018-12-24T14:58:19.996Z,9.10
2018-12-24T15:00:48.616Z,9.20
2018-12-24T15:03:17.403Z,9.20
2018-12-24T15:05:46.083Z,8.90
2018-12-24T15:08:14.782Z,8.60
2018-12-24T15:10:43.692Z,8.60
2018-12-24T15:13:12.531Z,8.40
2018-12-24T15:15:40.367Z,8.20
2018-12-24T15:18:08.260Z,8.20
2018-12-24T15:20:36.111Z,7.90
2018-12-24T15:23:03.943Z,7.90
2018-12-24T15:25:31.776Z,7.60
2018-12-24T15:27:59.619Z,7.70
2018-12-24T15:30:27.635Z,7.80
2018-12-24T15:32:55.435Z,7.90
2018-12-24T15:35:23.192Z,8.10
2018-12-24T15:37:51.007Z,8.20
2018-12-24T15:40:19.281Z,8.40
2018-12-24T15:42:47.848Z,8.50
2018-12-24T15:45:16.241Z,8.60
2018-12-24T15:47:44.726Z,8.70
2018-12-24T15:50:12.899Z,8.80
2018-12-24T15:52:41.271Z,8.80
2018-12-24T15:55:09.650Z,8.30
2018-12-24T15:57:37.869Z,8.50
2018-12-24T16:00:07.457Z,8.50
2018-12-24T16:02:35.918Z,8.60
2018-12-24T16:05:04.518Z,8.70
2018-12-24T16:07:32.882Z,8.80
2018-12-24T16:10:01.451Z,8.80
2018-12-24T16:12:30.138Z,8.70
2018-12-24T16:14:58.927Z,8.80
2018-12-24T16:17:27.601Z,8.70
2018-12-24T16:19:56.295Z,8.80
2018-12-24T16:22:24.981Z,8.70
2018-12-24T16:27:52.992Z,8.40
2018-12-24T16:30:20.860Z,8.50
2018-12-24T16:32:49.134Z,8.10
2018-12-24T16:35:17.590Z,8.20
2018-12-24T16:37:45.971Z,8.00
2018-12-24T16:40:14.549Z,7.90
2018-12-24T16:42:43.330Z,7.90
2018-12-24T16:45:12.026Z,8.00
2018-12-24T16:47:40.738Z,8.30
2018-12-24T16:50:09.492Z,8.40
2018-12-24T16:52:37.784Z,8.40
2018-12-24T16:55:06.029Z,8.00
2018-12-24T16:57:34.220Z,8.00
2018-12-24T17:00:02.385Z,8.10
2018-12-24T17:02:30.395Z,7.90
2018-12-24T17:04:58.736Z,8.00
2018-12-24T17:07:26.986Z,8.20
2018-12-24T17:09:55.186Z,8.30
2018-12-24T17:12:23.358Z,8.40
2018-12-24T17:14:51.361Z,8.40
2018-12-24T17:17:19.323Z,8.40
2018-12-24T17:19:47.306Z,8.50
2018-12-24T17:22:15.299Z,8.40
2018-12-24T17:24:43.320Z,8.20
2018-12-24T17:27:11.365Z,8.20
2018-12-24T17:29:39.475Z,8.30
2018-12-24T17:32:07.413Z,8.30
2018-12-24T17:34:35.532Z,8.20
2018-12-24T17:37:06.993Z,7.50
2018-12-24T17:39:36.120Z,7.30
2018-12-24T17:42:04.115Z,7.30
2018-12-24T17:44:32.057Z,7.40
2018-12-24T17:47:00.081Z,7.60
2018-12-24T17:49:28.134Z,7.30
2018-12-24T17:51:56.314Z,6.90
2018-12-24T17:54:24.471Z,6.60
2018-12-24T17:56:52.726Z,6.40
2018-12-24T17:59:20.898Z,6.30
2018-12-24T18:01:49.277Z,6.50
2018-12-24T18:04:17.456Z,6.80
2018-12-24T18:06:45.465Z,7.20
2018-12-24T18:09:13.487Z,7.50
2018-12-24T18:11:41.659Z,7.60
2018-12-24T18:14:09.661Z,7.80
2018-12-24T18:16:37.613Z,7.90
2018-12-24T18:19:08.509Z,8.10
2018-12-24T18:21:36.804Z,8.20
2018-12-24T18:24:04.749Z,8.30
2018-12-24T18:26:32.623Z,8.30
2018-12-24T18:29:00.530Z,8.40
2018-12-24T18:31:28.379Z,8.50
2018-12-24T18:33:56.235Z,8.50
2018-12-24T18:36:24.014Z,8.30
2018-12-24T18:38:52.412Z,8.40
2018-12-24T18:41:21.137Z,8.50
2018-12-24T18:43:49.872Z,8.40
2018-12-24T18:46:18.548Z,8.20
2018-12-24T18:48:47.039Z,8.10
2018-12-24T18:51:15.416Z,8.00
2018-12-24T18:53:43.284Z,8.00
2018-12-24T18:56:11.106Z,8.00
2018-12-24T18:58:38.872Z,7.90
2018-12-24T19:01:06.730Z,8.10
2018-12-24T19:03:34.931Z,8.10
2018-12-24T19:06:02.796Z,8.30
2018-12-24T19:08:30.647Z,8.30
2018-12-24T19:13:59.988Z,8.40
2018-12-24T19:16:27.951Z,8.60
2018-12-24T19:18:55.942Z,8.70
2018-12-24T19:21:24.080Z,8.80
2018-12-24T19:23:52.006Z,8.80
2018-12-24T19:26:20.008Z,8.90
2018-12-24T19:28:47.853Z,9.00
2018-12-24T19:31:15.711Z,9.00
2018-12-24T19:33:43.579Z,9.10
2018-12-24T19:36:11.565Z,9.10
2018-12-24T19:38:39.533Z,9.10
2018-12-24T19:41:07.559Z,9.20
2018-12-24T19:43:35.449Z,9.10
2018-12-24T19:46:03.473Z,9.20
2018-12-24T19:48:31.428Z,9.10
2018-12-24T19:50:59.323Z,9.10
2018-12-24T19:53:27.188Z,9.10
2018-12-24T19:55:55.078Z,9.20
2018-12-24T19:58:23.129Z,9.20
2018-12-24T20:00:50.979Z,9.00
2018-12-24T20:04:54.014Z,9.10
2018-12-24T20:07:21.864Z,9.00
2018-12-24T20:09:49.900Z,9.20
2018-12-24T20:12:17.906Z,9.00
2018-12-24T20:14:45.938Z,9.10
2018-12-24T20:17:14.132Z,9.10
2018-12-24T20:19:42.122Z,8.90
2018-12-24T20:22:10.195Z,8.80
2018-12-24T20:24:38.277Z,8.70
2018-12-24T20:27:06.212Z,8.70
2018-12-24T20:29:34.110Z,8.80
2018-12-24T20:32:02.913Z,8.80
2018-12-24T20:34:31.070Z,8.90
2018-12-24T20:36:58.904Z,9.00
2018-12-24T20:39:26.873Z,9.00
2018-12-24T20:41:54.744Z,9.10
2018-12-24T20:44:22.662Z,9.20
2018-12-24T20:46:50.447Z,9.10
2018-12-24T20:49:18.313Z,8.90
2018-12-24T20:51:46.236Z,8.70
2018-12-24T20:54:14.148Z,8.70
2018-12-24T20:56:42.079Z,8.90
2018-12-24T20:59:10.250Z,8.70
2018-12-24T21:01:48.262Z,8.40
2018-12-24T21:16:45.898Z,8.60
2018-12-24T21:24:42.186Z,8.90
2018-12-24T22:23:50.029Z,9.90
2018-12-24T22:26:18.572Z,10.00
2018-12-24T22:28:46.315Z,10.00
2018-12-24T23:59:10.932Z,10.00
